sensor_id;sensor_type;location;lat;lon;timestamp;P1;durP1;ratioP1;P2;durP2;ratioP2
26963;SDS011;14521;48.148;-1.656;2023-08-07T00:02:49;1.02;;;0.65;;
26963;SDS011;14521;48.148;-1.656;2023-08-07T00:06:12;1.92;;;0.85;;
26963;SDS011;14521;48.148;-1.656;2023-08-07T00:09:34;2.00;;;0.73;;
26963;SDS011;14521;48.148;-1.656;2023-08-07T00:12:57;1.77;;;0.90;;
26963;SDS011;14521;48.148;-1.656;2023-08-07T00:16:19;2.35;;;0.68;;
26963;SDS011;14521;48.148;-1.656;2023-08-07T00:19:41;2.83;;;0.70;;
26963;SDS011;14521;48.148;-1.656;2023-08-07T00:23:04;1.50;;;0.70;;
26963;SDS011;14521;48.148;-1.656;2023-08-07T00:26:26;2.97;;;0.82;;
26963;SDS011;14521;48.148;-1.656;2023-08-07T00:29:48;2.30;;;0.93;;
26963;SDS011;14521;48.148;-1.656;2023-08-07T00:33:11;1.17;;;0.77;;
26963;SDS011;14521;48.148;-1.656;2023-08-07T00:36:33;1.38;;;0.50;;
26963;SDS011;14521;48.148;-1.656;2023-08-07T00:39:56;1.25;;;0.68;;
26963;SDS011;14521;48.148;-1.656;2023-08-07T00:43:19;0.95;;;0.55;;
26963;SDS011;14521;48.148;-1.656;2023-08-07T00:46:41;3.85;;;0.70;;
26963;SDS011;14521;48.148;-1.656;2023-08-07T00:50:23;1.63;;;0.60;;
26963;SDS011;14521;48.148;-1.656;2023-08-07T00:53:54;1.25;;;0.70;;
26963;SDS011;14521;48.148;-1.656;2023-08-07T00:57:17;0.88;;;0.65;;
26963;SDS011;14521;48.148;-1.656;2023-08-07T01:00:45;1.17;;;0.60;;
26963;SDS011;14521;48.148;-1.656;2023-08-07T01:04:08;1.02;;;0.70;;
26963;SDS011;14521;48.148;-1.656;2023-08-07T01:07:30;4.32;;;0.63;;
26963;SDS011;14521;48.148;-1.656;2023-08-07T01:14:51;0.93;;;0.88;;
26963;SDS011;14521;48.148;-1.656;2023-08-07T01:18:17;0.60;;;0.50;;
26963;SDS011;14521;48.148;-1.656;2023-08-07T01:21:44;1.00;;;0.68;;
26963;SDS011;14521;48.148;-1.656;2023-08-07T01:25:09;1.40;;;0.70;;
26963;SDS011;14521;48.148;-1.656;2023-08-07T01:28:33;0.73;;;0.50;;
26963;SDS011;14521;48.148;-1.656;2023-08-07T01:32:00;1.00;;;0.82;;
26963;SDS011;14521;48.148;-1.656;2023-08-07T01:35:27;0.85;;;0.50;;
26963;SDS011;14521;48.148;-1.656;2023-08-07T01:38:54;2.10;;;0.63;;
26963;SDS011;14521;48.148;-1.656;2023-08-07T01:42:19;2.83;;;0.50;;
26963;SDS011;14521;48.148;-1.656;2023-08-07T01:45:42;0.80;;;0.50;;
26963;SDS011;14521;48.148;-1.656;2023-08-07T01:49:04;1.05;;;0.43;;
26963;SDS011;14521;48.148;-1.656;2023-08-07T01:52:27;2.47;;;0.60;;
26963;SDS011;14521;48.148;-1.656;2023-08-07T01:55:49;2.78;;;0.75;;
26963;SDS011;14521;48.148;-1.656;2023-08-07T01:59:11;2.95;;;0.90;;
26963;SDS011;14521;48.148;-1.656;2023-08-07T02:02:34;1.25;;;0.77;;
26963;SDS011;14521;48.148;-1.656;2023-08-07T02:05:56;6.18;;;0.50;;
26963;SDS011;14521;48.148;-1.656;2023-08-07T02:09:19;0.50;;;0.40;;
26963;SDS011;14521;48.148;-1.656;2023-08-07T02:12:42;1.35;;;0.57;;
26963;SDS011;14521;48.148;-1.656;2023-08-07T02:16:04;0.70;;;0.52;;
26963;SDS011;14521;48.148;-1.656;2023-08-07T02:19:27;1.65;;;0.60;;
26963;SDS011;14521;48.148;-1.656;2023-08-07T02:22:49;0.63;;;0.50;;
26963;SDS011;14521;48.148;-1.656;2023-08-07T02:26:11;1.92;;;0.98;;
26963;SDS011;14521;48.148;-1.656;2023-08-07T02:29:33;0.73;;;0.40;;
26963;SDS011;14521;48.148;-1.656;2023-08-07T02:32:56;2.28;;;0.60;;
26963;SDS011;14521;48.148;-1.656;2023-08-07T02:36:18;0.50;;;0.50;;
26963;SDS011;14521;48.148;-1.656;2023-08-07T02:39:41;1.70;;;0.50;;
26963;SDS011;14521;48.148;-1.656;2023-08-07T02:43:04;0.60;;;0.52;;
26963;SDS011;14521;48.148;-1.656;2023-08-07T02:46:26;1.80;;;0.77;;
26963;SDS011;14521;48.148;-1.656;2023-08-07T02:49:49;1.40;;;0.52;;
26963;SDS011;14521;48.148;-1.656;2023-08-07T02:53:12;1.80;;;0.60;;
26963;SDS011;14521;48.148;-1.656;2023-08-07T02:56:34;0.75;;;0.50;;
26963;SDS011;14521;48.148;-1.656;2023-08-07T02:59:57;1.67;;;0.73;;
26963;SDS011;14521;48.148;-1.656;2023-08-07T03:03:19;1.35;;;0.80;;
26963;SDS011;14521;48.148;-1.656;2023-08-07T03:06:41;1.00;;;0.60;;
26963;SDS011;14521;48.148;-1.656;2023-08-07T03:10:03;1.05;;;0.50;;
26963;SDS011;14521;48.148;-1.656;2023-08-07T03:13:26;1.75;;;0.52;;
26963;SDS011;14521;48.148;-1.656;2023-08-07T03:16:49;1.05;;;0.60;;
26963;SDS011;14521;48.148;-1.656;2023-08-07T03:20:11;1.70;;;0.60;;
26963;SDS011;14521;48.148;-1.656;2023-08-07T03:23:33;0.73;;;0.70;;
26963;SDS011;14521;48.148;-1.656;2023-08-07T03:30:21;1.10;;;0.60;;
26963;SDS011;14521;48.148;-1.656;2023-08-07T03:33:43;0.73;;;0.40;;
26963;SDS011;14521;48.148;-1.656;2023-08-07T03:37:08;0.50;;;0.50;;
26963;SDS011;14521;48.148;-1.656;2023-08-07T03:40:31;1.55;;;0.57;;
26963;SDS011;14521;48.148;-1.656;2023-08-07T03:43:54;2.13;;;0.30;;
26963;SDS011;14521;48.148;-1.656;2023-08-07T03:47:18;0.98;;;0.63;;
26963;SDS011;14521;48.148;-1.656;2023-08-07T03:50:40;1.45;;;0.57;;
26963;SDS011;14521;48.148;-1.656;2023-08-07T03:54:03;2.25;;;0.57;;
26963;SDS011;14521;48.148;-1.656;2023-08-07T03:57:25;0.43;;;0.43;;
26963;SDS011;14521;48.148;-1.656;2023-08-07T04:00:47;0.43;;;0.43;;
26963;SDS011;14521;48.148;-1.656;2023-08-07T04:04:12;1.08;;;0.70;;
26963;SDS011;14521;48.148;-1.656;2023-08-07T04:07:34;0.70;;;0.50;;
26963;SDS011;14521;48.148;-1.656;2023-08-07T04:11:05;1.05;;;0.55;;
26963;SDS011;14521;48.148;-1.656;2023-08-07T04:14:29;0.80;;;0.40;;
26963;SDS011;14521;48.148;-1.656;2023-08-07T04:17:51;2.42;;;0.40;;
26963;SDS011;14521;48.148;-1.656;2023-08-07T04:21:14;1.67;;;0.70;;
26963;SDS011;14521;48.148;-1.656;2023-08-07T04:24:36;1.67;;;0.47;;
26963;SDS011;14521;48.148;-1.656;2023-08-07T04:27:59;2.92;;;0.43;;
26963;SDS011;14521;48.148;-1.656;2023-08-07T04:31:21;0.57;;;0.50;;
26963;SDS011;14521;48.148;-1.656;2023-08-07T04:34:44;0.45;;;0.40;;
26963;SDS011;14521;48.148;-1.656;2023-08-07T04:38:06;1.00;;;0.50;;
26963;SDS011;14521;48.148;-1.656;2023-08-07T04:41:29;1.25;;;0.60;;
26963;SDS011;14521;48.148;-1.656;2023-08-07T04:44:51;1.58;;;0.70;;
26963;SDS011;14521;48.148;-1.656;2023-08-07T04:48:13;0.98;;;0.50;;
26963;SDS011;14521;48.148;-1.656;2023-08-07T04:51:36;0.40;;;0.38;;
26963;SDS011;14521;48.148;-1.656;2023-08-07T04:54:59;1.85;;;0.50;;
26963;SDS011;14521;48.148;-1.656;2023-08-07T04:58:21;1.20;;;0.52;;
26963;SDS011;14521;48.148;-1.656;2023-08-07T05:01:43;0.93;;;0.40;;
26963;SDS011;14521;48.148;-1.656;2023-08-07T05:05:05;1.08;;;0.35;;
26963;SDS011;14521;48.148;-1.656;2023-08-07T05:08:28;0.90;;;0.50;;
26963;SDS011;14521;48.148;-1.656;2023-08-07T05:11:50;0.70;;;0.50;;
26963;SDS011;14521;48.148;-1.656;2023-08-07T05:15:13;1.10;;;0.32;;
26963;SDS011;14521;48.148;-1.656;2023-08-07T05:18:35;1.15;;;0.47;;
26963;SDS011;14521;48.148;-1.656;2023-08-07T05:21:57;1.25;;;0.60;;
26963;SDS011;14521;48.148;-1.656;2023-08-07T05:25:20;0.40;;;0.30;;
26963;SDS011;14521;48.148;-1.656;2023-08-07T05:28:42;0.50;;;0.50;;
26963;SDS011;14521;48.148;-1.656;2023-08-07T05:32:04;0.43;;;0.43;;
26963;SDS011;14521;48.148;-1.656;2023-08-07T05:35:27;1.45;;;0.43;;
26963;SDS011;14521;48.148;-1.656;2023-08-07T05:39:08;0.70;;;0.43;;
26963;SDS011;14521;48.148;-1.656;2023-08-07T05:42:30;1.10;;;0.50;;
26963;SDS011;14521;48.148;-1.656;2023-08-07T05:45:53;1.45;;;0.60;;
26963;SDS011;14521;48.148;-1.656;2023-08-07T05:49:15;1.42;;;0.75;;
26963;SDS011;14521;48.148;-1.656;2023-08-07T05:52:38;1.75;;;0.55;;
26963;SDS011;14521;48.148;-1.656;2023-08-07T05:56:00;0.50;;;0.40;;
26963;SDS011;14521;48.148;-1.656;2023-08-07T05:59:22;1.55;;;0.70;;
26963;SDS011;14521;48.148;-1.656;2023-08-07T06:02:45;1.85;;;0.80;;
26963;SDS011;14521;48.148;-1.656;2023-08-07T06:06:07;3.63;;;0.60;;
26963;SDS011;14521;48.148;-1.656;2023-08-07T06:09:29;0.30;;;0.30;;
26963;SDS011;14521;48.148;-1.656;2023-08-07T06:12:52;6.07;;;0.40;;
26963;SDS011;14521;48.148;-1.656;2023-08-07T06:16:14;5.80;;;0.50;;
26963;SDS011;14521;48.148;-1.656;2023-08-07T06:19:36;2.63;;;0.68;;
26963;SDS011;14521;48.148;-1.656;2023-08-07T06:22:59;2.92;;;0.47;;
26963;SDS011;14521;48.148;-1.656;2023-08-07T06:26:22;3.47;;;0.70;;
26963;SDS011;14521;48.148;-1.656;2023-08-07T06:29:44;2.47;;;0.57;;
26963;SDS011;14521;48.148;-1.656;2023-08-07T06:33:06;3.78;;;0.40;;
26963;SDS011;14521;48.148;-1.656;2023-08-07T06:36:28;1.25;;;0.40;;
26963;SDS011;14521;48.148;-1.656;2023-08-07T06:39:51;3.95;;;0.60;;
26963;SDS011;14521;48.148;-1.656;2023-08-07T06:43:13;2.10;;;0.77;;
26963;SDS011;14521;48.148;-1.656;2023-08-07T06:46:35;0.75;;;0.52;;
26963;SDS011;14521;48.148;-1.656;2023-08-07T06:49:57;2.30;;;0.63;;
26963;SDS011;14521;48.148;-1.656;2023-08-07T06:53:19;3.35;;;0.65;;
26963;SDS011;14521;48.148;-1.656;2023-08-07T06:56:42;4.28;;;0.70;;
26963;SDS011;14521;48.148;-1.656;2023-08-07T07:00:05;12.35;;;0.70;;
26963;SDS011;14521;48.148;-1.656;2023-08-07T07:03:28;5.13;;;0.65;;
26963;SDS011;14521;48.148;-1.656;2023-08-07T07:06:50;1.80;;;0.50;;
26963;SDS011;14521;48.148;-1.656;2023-08-07T07:10:13;1.08;;;0.52;;
26963;SDS011;14521;48.148;-1.656;2023-08-07T07:13:35;4.75;;;0.50;;
26963;SDS011;14521;48.148;-1.656;2023-08-07T07:16:57;1.48;;;0.77;;
26963;SDS011;14521;48.148;-1.656;2023-08-07T07:20:20;0.50;;;0.40;;
26963;SDS011;14521;48.148;-1.656;2023-08-07T07:23:42;3.03;;;0.90;;
26963;SDS011;14521;48.148;-1.656;2023-08-07T07:27:04;11.02;;;0.90;;
26963;SDS011;14521;48.148;-1.656;2023-08-07T07:30:27;6.85;;;0.80;;
26963;SDS011;14521;48.148;-1.656;2023-08-07T07:33:49;9.30;;;0.88;;
26963;SDS011;14521;48.148;-1.656;2023-08-07T07:37:12;9.82;;;1.00;;
26963;SDS011;14521;48.148;-1.656;2023-08-07T07:40:36;2.08;;;0.75;;
26963;SDS011;14521;48.148;-1.656;2023-08-07T07:43:58;9.43;;;1.00;;
26963;SDS011;14521;48.148;-1.656;2023-08-07T07:47:21;2.30;;;0.75;;
26963;SDS011;14521;48.148;-1.656;2023-08-07T07:50:43;5.82;;;0.65;;
26963;SDS011;14521;48.148;-1.656;2023-08-07T07:54:05;2.63;;;1.05;;
26963;SDS011;14521;48.148;-1.656;2023-08-07T07:57:30;1.58;;;0.65;;
26963;SDS011;14521;48.148;-1.656;2023-08-07T08:00:53;1.50;;;0.60;;
26963;SDS011;14521;48.148;-1.656;2023-08-07T08:04:16;4.25;;;0.70;;
26963;SDS011;14521;48.148;-1.656;2023-08-07T08:07:38;1.23;;;0.68;;
26963;SDS011;14521;48.148;-1.656;2023-08-07T08:11:01;9.32;;;0.95;;
26963;SDS011;14521;48.148;-1.656;2023-08-07T08:14:24;7.82;;;0.50;;
26963;SDS011;14521;48.148;-1.656;2023-08-07T08:17:47;3.60;;;0.70;;
26963;SDS011;14521;48.148;-1.656;2023-08-07T08:21:10;2.63;;;0.68;;
26963;SDS011;14521;48.148;-1.656;2023-08-07T08:24:32;2.55;;;0.60;;
26963;SDS011;14521;48.148;-1.656;2023-08-07T08:27:54;2.13;;;0.65;;
26963;SDS011;14521;48.148;-1.656;2023-08-07T08:31:17;1.38;;;0.70;;
26963;SDS011;14521;48.148;-1.656;2023-08-07T08:34:58;5.55;;;0.82;;
26963;SDS011;14521;48.148;-1.656;2023-08-07T08:38:21;1.40;;;0.60;;
26963;SDS011;14521;48.148;-1.656;2023-08-07T08:41:45;8.95;;;1.00;;
26963;SDS011;14521;48.148;-1.656;2023-08-07T08:45:09;3.13;;;0.70;;
26963;SDS011;14521;48.148;-1.656;2023-08-07T08:48:34;1.42;;;0.63;;
26963;SDS011;14521;48.148;-1.656;2023-08-07T08:51:57;6.18;;;0.90;;
26963;SDS011;14521;48.148;-1.656;2023-08-07T08:55:20;3.72;;;1.00;;
26963;SDS011;14521;48.148;-1.656;2023-08-07T08:58:43;5.38;;;0.68;;
26963;SDS011;14521;48.148;-1.656;2023-08-07T09:02:06;3.55;;;0.80;;
26963;SDS011;14521;48.148;-1.656;2023-08-07T09:05:28;3.92;;;1.05;;
26963;SDS011;14521;48.148;-1.656;2023-08-07T09:08:51;17.42;;;0.82;;
26963;SDS011;14521;48.148;-1.656;2023-08-07T09:12:16;7.40;;;0.82;;
26963;SDS011;14521;48.148;-1.656;2023-08-07T09:15:42;7.25;;;0.60;;
26963;SDS011;14521;48.148;-1.656;2023-08-07T09:19:09;10.68;;;0.90;;
26963;SDS011;14521;48.148;-1.656;2023-08-07T09:22:31;1.88;;;0.60;;
26963;SDS011;14521;48.148;-1.656;2023-08-07T09:26:03;12.13;;;0.90;;
26963;SDS011;14521;48.148;-1.656;2023-08-07T09:29:26;3.88;;;1.08;;
26963;SDS011;14521;48.148;-1.656;2023-08-07T09:32:49;4.30;;;1.08;;
26963;SDS011;14521;48.148;-1.656;2023-08-07T09:36:11;4.32;;;0.80;;
26963;SDS011;14521;48.148;-1.656;2023-08-07T09:39:34;5.70;;;1.13;;
26963;SDS011;14521;48.148;-1.656;2023-08-07T09:42:57;7.97;;;0.80;;
26963;SDS011;14521;48.148;-1.656;2023-08-07T09:46:19;4.68;;;0.90;;
26963;SDS011;14521;48.148;-1.656;2023-08-07T09:49:42;2.05;;;0.73;;
26963;SDS011;14521;48.148;-1.656;2023-08-07T09:53:05;5.40;;;0.75;;
26963;SDS011;14521;48.148;-1.656;2023-08-07T09:56:28;8.93;;;0.70;;
26963;SDS011;14521;48.148;-1.656;2023-08-07T09:59:50;8.45;;;0.77;;
26963;SDS011;14521;48.148;-1.656;2023-08-07T10:03:14;2.38;;;0.70;;
26963;SDS011;14521;48.148;-1.656;2023-08-07T10:06:38;1.10;;;0.63;;
26963;SDS011;14521;48.148;-1.656;2023-08-07T10:10:02;3.53;;;0.70;;
26963;SDS011;14521;48.148;-1.656;2023-08-07T10:13:25;2.95;;;0.47;;
26963;SDS011;14521;48.148;-1.656;2023-08-07T10:20:24;2.85;;;0.60;;
26963;SDS011;14521;48.148;-1.656;2023-08-07T10:23:50;88.03;;;36.92;;
26963;SDS011;14521;48.148;-1.656;2023-08-07T10:27:17;74.78;;;31.15;;
26963;SDS011;14521;48.148;-1.656;2023-08-07T10:34:03;45.92;;;20.95;;
26963;SDS011;14521;48.148;-1.656;2023-08-07T10:37:41;37.70;;;18.58;;
26963;SDS011;14521;48.148;-1.656;2023-08-07T10:44:30;18.67;;;8.63;;
26963;SDS011;14521;48.148;-1.656;2023-08-07T10:51:31;15.05;;;7.57;;
26963;SDS011;14521;48.148;-1.656;2023-08-07T10:54:53;4.97;;;2.60;;
26963;SDS011;14521;48.148;-1.656;2023-08-07T10:58:26;8.30;;;2.50;;
26963;SDS011;14521;48.148;-1.656;2023-08-07T11:01:56;8.63;;;2.22;;
26963;SDS011;14521;48.148;-1.656;2023-08-07T11:05:18;1.98;;;0.95;;
26963;SDS011;14521;48.148;-1.656;2023-08-07T11:08:42;5.15;;;2.90;;
26963;SDS011;14521;48.148;-1.656;2023-08-07T11:12:04;1.98;;;1.17;;
26963;SDS011;14521;48.148;-1.656;2023-08-07T11:15:27;3.35;;;1.10;;
26963;SDS011;14521;48.148;-1.656;2023-08-07T11:18:49;8.93;;;1.00;;
26963;SDS011;14521;48.148;-1.656;2023-08-07T11:22:12;7.28;;;1.58;;
26963;SDS011;14521;48.148;-1.656;2023-08-07T11:25:36;3.00;;;1.73;;
26963;SDS011;14521;48.148;-1.656;2023-08-07T11:28:58;11.10;;;1.65;;
26963;SDS011;14521;48.148;-1.656;2023-08-07T11:32:21;2.60;;;0.77;;
26963;SDS011;14521;48.148;-1.656;2023-08-07T11:35:44;2.38;;;1.00;;
26963;SDS011;14521;48.148;-1.656;2023-08-07T11:39:06;3.35;;;0.90;;
26963;SDS011;14521;48.148;-1.656;2023-08-07T11:42:28;4.38;;;1.00;;
26963;SDS011;14521;48.148;-1.656;2023-08-07T11:45:51;1.90;;;1.10;;
26963;SDS011;14521;48.148;-1.656;2023-08-07T11:49:14;2.40;;;0.70;;
26963;SDS011;14521;48.148;-1.656;2023-08-07T11:52:36;1.90;;;0.80;;
26963;SDS011;14521;48.148;-1.656;2023-08-07T11:56:02;3.47;;;0.93;;
26963;SDS011;14521;48.148;-1.656;2023-08-07T11:59:26;1.65;;;0.50;;
26963;SDS011;14521;48.148;-1.656;2023-08-07T12:02:48;1.30;;;0.52;;
26963;SDS011;14521;48.148;-1.656;2023-08-07T12:06:11;1.15;;;0.60;;
26963;SDS011;14521;48.148;-1.656;2023-08-07T12:09:33;1.83;;;0.73;;
26963;SDS011;14521;48.148;-1.656;2023-08-07T12:12:58;1.20;;;0.70;;
26963;SDS011;14521;48.148;-1.656;2023-08-07T12:16:26;7.85;;;0.93;;
26963;SDS011;14521;48.148;-1.656;2023-08-07T12:19:53;3.53;;;1.10;;
26963;SDS011;14521;48.148;-1.656;2023-08-07T12:23:20;5.32;;;0.82;;
26963;SDS011;14521;48.148;-1.656;2023-08-07T12:26:43;0.95;;;0.60;;
26963;SDS011;14521;48.148;-1.656;2023-08-07T12:30:06;1.45;;;0.63;;
26963;SDS011;14521;48.148;-1.656;2023-08-07T12:33:28;5.35;;;0.65;;
26963;SDS011;14521;48.148;-1.656;2023-08-07T12:36:51;2.17;;;0.60;;
26963;SDS011;14521;48.148;-1.656;2023-08-07T12:40:13;6.05;;;4.68;;
26963;SDS011;14521;48.148;-1.656;2023-08-07T12:43:44;56.25;;;23.17;;
26963;SDS011;14521;48.148;-1.656;2023-08-07T12:47:24;44.55;;;22.08;;
26963;SDS011;14521;48.148;-1.656;2023-08-07T12:50:46;42.03;;;20.98;;
26963;SDS011;14521;48.148;-1.656;2023-08-07T12:54:09;37.72;;;18.42;;
26963;SDS011;14521;48.148;-1.656;2023-08-07T12:57:31;44.38;;;20.50;;
26963;SDS011;14521;48.148;-1.656;2023-08-07T13:00:53;43.90;;;20.02;;
26963;SDS011;14521;48.148;-1.656;2023-08-07T13:04:16;37.35;;;16.88;;
26963;SDS011;14521;48.148;-1.656;2023-08-07T13:07:39;39.85;;;19.77;;
26963;SDS011;14521;48.148;-1.656;2023-08-07T13:11:01;40.50;;;20.30;;
26963;SDS011;14521;48.148;-1.656;2023-08-07T13:14:23;38.20;;;18.95;;
26963;SDS011;14521;48.148;-1.656;2023-08-07T13:17:46;33.20;;;15.10;;
26963;SDS011;14521;48.148;-1.656;2023-08-07T13:21:08;31.38;;;17.73;;
26963;SDS011;14521;48.148;-1.656;2023-08-07T13:24:30;39.00;;;16.45;;
26963;SDS011;14521;48.148;-1.656;2023-08-07T13:27:53;31.00;;;16.00;;
26963;SDS011;14521;48.148;-1.656;2023-08-07T13:31:15;24.92;;;12.55;;
26963;SDS011;14521;48.148;-1.656;2023-08-07T13:34:38;33.58;;;16.02;;
26963;SDS011;14521;48.148;-1.656;2023-08-07T13:38:00;29.40;;;13.93;;
26963;SDS011;14521;48.148;-1.656;2023-08-07T13:41:27;21.52;;;12.75;;
26963;SDS011;14521;48.148;-1.656;2023-08-07T13:44:49;17.77;;;12.40;;
26963;SDS011;14521;48.148;-1.656;2023-08-07T13:48:11;18.88;;;11.02;;
26963;SDS011;14521;48.148;-1.656;2023-08-07T13:51:34;20.40;;;10.70;;
26963;SDS011;14521;48.148;-1.656;2023-08-07T13:54:56;20.63;;;9.15;;
26963;SDS011;14521;48.148;-1.656;2023-08-07T13:58:18;16.40;;;10.25;;
26963;SDS011;14521;48.148;-1.656;2023-08-07T14:01:40;21.20;;;10.80;;
26963;SDS011;14521;48.148;-1.656;2023-08-07T14:05:03;16.20;;;10.15;;
26963;SDS011;14521;48.148;-1.656;2023-08-07T14:08:25;19.85;;;10.20;;
26963;SDS011;14521;48.148;-1.656;2023-08-07T14:11:48;14.77;;;9.55;;
26963;SDS011;14521;48.148;-1.656;2023-08-07T14:15:11;5.00;;;2.70;;
26963;SDS011;14521;48.148;-1.656;2023-08-07T14:18:33;23.92;;;7.75;;
26963;SDS011;14521;48.148;-1.656;2023-08-07T14:21:56;17.52;;;6.80;;
26963;SDS011;14521;48.148;-1.656;2023-08-07T14:25:18;12.27;;;7.47;;
26963;SDS011;14521;48.148;-1.656;2023-08-07T14:28:43;13.05;;;7.25;;
26963;SDS011;14521;48.148;-1.656;2023-08-07T14:32:05;12.98;;;7.57;;
26963;SDS011;14521;48.148;-1.656;2023-08-07T14:35:27;13.35;;;7.55;;
26963;SDS011;14521;48.148;-1.656;2023-08-07T14:38:50;10.32;;;6.82;;
26963;SDS011;14521;48.148;-1.656;2023-08-07T14:42:12;17.58;;;7.00;;
26963;SDS011;14521;48.148;-1.656;2023-08-07T14:45:34;11.38;;;7.40;;
26963;SDS011;14521;48.148;-1.656;2023-08-07T14:48:56;10.07;;;6.50;;
26963;SDS011;14521;48.148;-1.656;2023-08-07T14:52:18;14.68;;;6.38;;
26963;SDS011;14521;48.148;-1.656;2023-08-07T14:55:41;10.70;;;5.60;;
26963;SDS011;14521;48.148;-1.656;2023-08-07T14:59:05;12.98;;;6.00;;
26963;SDS011;14521;48.148;-1.656;2023-08-07T15:02:27;6.88;;;4.72;;
26963;SDS011;14521;48.148;-1.656;2023-08-07T15:05:49;6.07;;;3.20;;
26963;SDS011;14521;48.148;-1.656;2023-08-07T15:09:12;2.75;;;1.67;;
26963;SDS011;14521;48.148;-1.656;2023-08-07T15:12:34;2.15;;;1.60;;
26963;SDS011;14521;48.148;-1.656;2023-08-07T15:15:56;1.60;;;1.50;;
26963;SDS011;14521;48.148;-1.656;2023-08-07T15:19:18;0.93;;;0.85;;
26963;SDS011;14521;48.148;-1.656;2023-08-07T15:22:41;3.85;;;0.68;;
26963;SDS011;14521;48.148;-1.656;2023-08-07T15:26:03;1.55;;;0.90;;
26963;SDS011;14521;48.148;-1.656;2023-08-07T15:29:25;2.78;;;0.85;;
26963;SDS011;14521;48.148;-1.656;2023-08-07T15:32:48;4.85;;;0.90;;
26963;SDS011;14521;48.148;-1.656;2023-08-07T15:36:10;5.65;;;0.85;;
26963;SDS011;14521;48.148;-1.656;2023-08-07T15:39:32;1.48;;;0.70;;
26963;SDS011;14521;48.148;-1.656;2023-08-07T15:42:54;0.60;;;0.50;;
26963;SDS011;14521;48.148;-1.656;2023-08-07T15:46:17;2.35;;;0.70;;
26963;SDS011;14521;48.148;-1.656;2023-08-07T15:49:39;1.88;;;1.30;;
26963;SDS011;14521;48.148;-1.656;2023-08-07T15:53:05;3.00;;;0.70;;
26963;SDS011;14521;48.148;-1.656;2023-08-07T15:56:28;2.10;;;0.82;;
26963;SDS011;14521;48.148;-1.656;2023-08-07T15:59:50;1.95;;;0.70;;
26963;SDS011;14521;48.148;-1.656;2023-08-07T16:03:12;4.20;;;0.70;;
26963;SDS011;14521;48.148;-1.656;2023-08-07T16:06:34;0.93;;;0.50;;
26963;SDS011;14521;48.148;-1.656;2023-08-07T16:09:57;2.42;;;0.57;;
26963;SDS011;14521;48.148;-1.656;2023-08-07T16:13:19;0.77;;;0.60;;
26963;SDS011;14521;48.148;-1.656;2023-08-07T16:16:41;1.20;;;0.40;;
26963;SDS011;14521;48.148;-1.656;2023-08-07T16:20:04;1.80;;;0.90;;
26963;SDS011;14521;48.148;-1.656;2023-08-07T16:23:27;10.77;;;0.73;;
26963;SDS011;14521;48.148;-1.656;2023-08-07T16:26:49;1.25;;;0.60;;
26963;SDS011;14521;48.148;-1.656;2023-08-07T16:30:11;0.85;;;0.50;;
26963;SDS011;14521;48.148;-1.656;2023-08-07T16:33:33;1.08;;;0.52;;
26963;SDS011;14521;48.148;-1.656;2023-08-07T16:36:56;3.13;;;0.50;;
26963;SDS011;14521;48.148;-1.656;2023-08-07T16:40:18;11.45;;;0.50;;
26963;SDS011;14521;48.148;-1.656;2023-08-07T16:43:41;6.50;;;0.70;;
26963;SDS011;14521;48.148;-1.656;2023-08-07T16:47:03;2.65;;;0.50;;
26963;SDS011;14521;48.148;-1.656;2023-08-07T16:50:28;0.80;;;0.50;;
26963;SDS011;14521;48.148;-1.656;2023-08-07T16:53:50;0.95;;;0.63;;
26963;SDS011;14521;48.148;-1.656;2023-08-07T16:57:12;0.73;;;0.50;;
26963;SDS011;14521;48.148;-1.656;2023-08-07T17:00:34;2.55;;;0.57;;
26963;SDS011;14521;48.148;-1.656;2023-08-07T17:03:57;0.52;;;0.50;;
26963;SDS011;14521;48.148;-1.656;2023-08-07T17:07:19;0.40;;;0.40;;
26963;SDS011;14521;48.148;-1.656;2023-08-07T17:10:41;2.95;;;0.40;;
26963;SDS011;14521;48.148;-1.656;2023-08-07T17:14:04;0.63;;;0.40;;
26963;SDS011;14521;48.148;-1.656;2023-08-07T17:17:26;1.48;;;0.47;;
26963;SDS011;14521;48.148;-1.656;2023-08-07T17:20:48;1.67;;;0.55;;
26963;SDS011;14521;48.148;-1.656;2023-08-07T17:24:10;3.88;;;0.63;;
26963;SDS011;14521;48.148;-1.656;2023-08-07T17:27:33;3.20;;;0.50;;
26963;SDS011;14521;48.148;-1.656;2023-08-07T17:30:55;1.50;;;0.40;;
26963;SDS011;14521;48.148;-1.656;2023-08-07T17:34:18;0.60;;;0.43;;
26963;SDS011;14521;48.148;-1.656;2023-08-07T17:37:40;1.88;;;0.60;;
26963;SDS011;14521;48.148;-1.656;2023-08-07T17:41:03;3.15;;;0.52;;
26963;SDS011;14521;48.148;-1.656;2023-08-07T17:44:25;1.85;;;0.75;;
26963;SDS011;14521;48.148;-1.656;2023-08-07T17:47:47;1.15;;;0.50;;
26963;SDS011;14521;48.148;-1.656;2023-08-07T17:51:12;1.48;;;0.60;;
26963;SDS011;14521;48.148;-1.656;2023-08-07T17:54:35;1.70;;;0.52;;
26963;SDS011;14521;48.148;-1.656;2023-08-07T17:57:59;1.20;;;0.60;;
26963;SDS011;14521;48.148;-1.656;2023-08-07T18:01:21;2.08;;;0.63;;
26963;SDS011;14521;48.148;-1.656;2023-08-07T18:04:44;1.17;;;0.50;;
26963;SDS011;14521;48.148;-1.656;2023-08-07T18:08:06;3.05;;;0.77;;
26963;SDS011;14521;48.148;-1.656;2023-08-07T18:11:28;1.63;;;0.50;;
26963;SDS011;14521;48.148;-1.656;2023-08-07T18:14:51;3.67;;;0.57;;
26963;SDS011;14521;48.148;-1.656;2023-08-07T18:18:13;3.95;;;0.60;;
26963;SDS011;14521;48.148;-1.656;2023-08-07T18:21:36;3.60;;;0.50;;
26963;SDS011;14521;48.148;-1.656;2023-08-07T18:24:58;2.35;;;0.52;;
26963;SDS011;14521;48.148;-1.656;2023-08-07T18:28:20;1.00;;;0.60;;
26963;SDS011;14521;48.148;-1.656;2023-08-07T18:31:43;3.70;;;0.70;;
26963;SDS011;14521;48.148;-1.656;2023-08-07T18:35:05;5.35;;;0.88;;
26963;SDS011;14521;48.148;-1.656;2023-08-07T18:38:28;1.92;;;0.90;;
26963;SDS011;14521;48.148;-1.656;2023-08-07T18:41:50;1.35;;;0.82;;
26963;SDS011;14521;48.148;-1.656;2023-08-07T18:45:13;1.27;;;0.90;;
26963;SDS011;14521;48.148;-1.656;2023-08-07T18:48:35;4.22;;;0.70;;
26963;SDS011;14521;48.148;-1.656;2023-08-07T18:51:57;3.95;;;0.60;;
26963;SDS011;14521;48.148;-1.656;2023-08-07T18:55:20;2.28;;;0.63;;
26963;SDS011;14521;48.148;-1.656;2023-08-07T18:58:42;4.55;;;0.88;;
26963;SDS011;14521;48.148;-1.656;2023-08-07T19:02:04;4.22;;;0.60;;
26963;SDS011;14521;48.148;-1.656;2023-08-07T19:05:27;2.03;;;0.70;;
26963;SDS011;14521;48.148;-1.656;2023-08-07T19:08:49;1.75;;;0.80;;
26963;SDS011;14521;48.148;-1.656;2023-08-07T19:12:11;1.02;;;0.43;;
26963;SDS011;14521;48.148;-1.656;2023-08-07T19:15:34;2.05;;;0.70;;
26963;SDS011;14521;48.148;-1.656;2023-08-07T19:18:56;6.35;;;0.65;;
26963;SDS011;14521;48.148;-1.656;2023-08-07T19:22:18;1.00;;;0.45;;
26963;SDS011;14521;48.148;-1.656;2023-08-07T19:25:41;3.97;;;0.70;;
26963;SDS011;14521;48.148;-1.656;2023-08-07T19:29:03;7.38;;;0.68;;
26963;SDS011;14521;48.148;-1.656;2023-08-07T19:32:26;5.22;;;0.50;;
26963;SDS011;14521;48.148;-1.656;2023-08-07T19:35:48;1.20;;;0.52;;
26963;SDS011;14521;48.148;-1.656;2023-08-07T19:39:10;5.53;;;0.88;;
26963;SDS011;14521;48.148;-1.656;2023-08-07T19:42:33;3.53;;;0.50;;
26963;SDS011;14521;48.148;-1.656;2023-08-07T19:45:56;5.13;;;0.60;;
26963;SDS011;14521;48.148;-1.656;2023-08-07T19:49:18;2.88;;;0.70;;
26963;SDS011;14521;48.148;-1.656;2023-08-07T19:52:41;0.95;;;0.50;;
26963;SDS011;14521;48.148;-1.656;2023-08-07T19:56:03;2.15;;;0.50;;
26963;SDS011;14521;48.148;-1.656;2023-08-07T20:02:50;1.73;;;0.50;;
26963;SDS011;14521;48.148;-1.656;2023-08-07T20:06:12;0.80;;;0.50;;
26963;SDS011;14521;48.148;-1.656;2023-08-07T20:09:35;2.75;;;0.90;;
26963;SDS011;14521;48.148;-1.656;2023-08-07T20:13:00;2.40;;;0.40;;
26963;SDS011;14521;48.148;-1.656;2023-08-07T20:16:22;4.90;;;0.82;;
26963;SDS011;14521;48.148;-1.656;2023-08-07T20:19:44;1.10;;;0.47;;
26963;SDS011;14521;48.148;-1.656;2023-08-07T20:23:08;14.38;;;0.75;;
26963;SDS011;14521;48.148;-1.656;2023-08-07T20:26:30;2.47;;;0.60;;